Time;durP1;ratioP1;P1;durP2;ratioP2;P2;SDS_P1;SDS_P2;PMS_P1;PMS_P2;Temp;Humidity;BMP_temperature;BMP_pressure;BME280_temperature;BME280_humidity;BME280_pressure;Samples;Min_cycle;Max_cycle;Signal;HPM_P1;HPM_P2
2022/01/23 00:00:34;;;;;;;89.43;33.50;;;;;;;;;;5031786;28;20109;-75
2022/01/23 00:03:02;;;;;;;72.65;32.53;;;;;;;;;;5031668;28;20021;-75
2022/01/23 00:05:37;;;;;;;72.65;33.45;;;;;;;;;;5031348;28;20049;-75
2022/01/23 00:08:05;;;;;;;107.03;36.15;;;;;;;;;;5031793;28;20041;-75
2022/01/23 00:10:31;;;;;;;69.47;30.83;;;;;;;;;;5030367;28;20029;-75
2022/01/23 00:13:22;;;;;;;78.00;31.55;;;;;;;;;;5014760;28;20037;-76
2022/01/23 00:18:33;;;;;;;68.63;30.92;;;;;;;;;;5031157;28;20040;-75
2022/01/23 00:20:59;;;;;;;77.38;31.30;;;;;;;;;;5014772;28;20128;-75
2022/01/23 00:31:25;;;;;;;75.07;31.88;;;;;;;;;;5073461;28;20486;-75
2022/01/23 00:33:54;;;;;;;81.30;33.15;;;;;;;;;;5073239;28;20107;-75
2022/01/23 00:36:20;;;;;;;81.03;31.77;;;;;;;;;;5073136;28;20105;-75
2022/01/23 00:38:46;;;;;;;80.25;32.22;;;;;;;;;;5072572;28;20036;-75
2022/01/23 00:41:12;;;;;;;75.57;31.30;;;;;;;;;;5071728;28;20025;-75
2022/01/23 00:43:41;;;;;;;84.75;32.72;;;;;;;;;;5072923;28;20052;-75
2022/01/23 00:46:52;;;;;;;66.28;31.45;;;;;;;;;;5073338;28;20465;-75
2022/01/23 00:51:27;;;;;;;69.88;31.63;;;;;;;;;;5073371;28;20356;-75
2022/01/23 00:53:54;;;;;;;68.63;30.10;;;;;;;;;;5072616;28;20163;-75
2022/01/23 00:56:20;;;;;;;76.43;31.00;;;;;;;;;;5062126;28;20355;-75
2022/01/23 00:58:46;;;;;;;64.38;29.33;;;;;;;;;;5052649;28;20021;-75
2022/01/23 01:01:13;;;;;;;71.80;28.77;;;;;;;;;;5052722;28;20100;-75
2022/01/23 01:03:39;;;;;;;64.68;30.23;;;;;;;;;;5052649;28;20029;-75
2022/01/23 01:06:06;;;;;;;61.30;28.45;;;;;;;;;;5052854;28;20127;-75
2022/01/23 01:08:32;;;;;;;74.35;32.55;;;;;;;;;;5052691;28;20119;-75
2022/01/23 01:14:23;;;;;;;66.65;29.33;;;;;;;;;;5029969;28;20033;-75
2022/01/23 01:31:00;;;;;;;89.18;32.20;;;;;;;;;;5030768;28;20064;-75
2022/01/23 01:35:37;;;;;;;61.15;29.40;;;;;;;;;;5030135;28;20030;-75
2022/01/23 01:38:03;;;;;;;68.13;28.77;;;;;;;;;;5030223;28;20034;-75
2022/01/23 01:40:29;;;;;;;87.07;31.42;;;;;;;;;;5029923;28;20022;-75
2022/01/23 01:42:55;;;;;;;73.95;29.15;;;;;;;;;;5030388;28;20037;-75
2022/01/23 01:45:22;;;;;;;59.33;26.23;;;;;;;;;;5030565;28;20372;-74
2022/01/23 01:47:49;;;;;;;65.18;26.67;;;;;;;;;;5030396;28;20037;-75
2022/01/23 01:50:15;;;;;;;63.75;25.95;;;;;;;;;;5047761;28;20053;-75
2022/01/23 01:52:42;;;;;;;67.07;27.90;;;;;;;;;;5052335;28;20036;-75
2022/01/23 01:55:10;;;;;;;76.68;29.08;;;;;;;;;;5051735;28;20025;-75
2022/01/23 01:57:43;;;;;;;78.03;31.05;;;;;;;;;;5032194;28;20025;-75
2022/01/23 02:00:35;;;;;;;65.93;26.88;;;;;;;;;;5032684;28;20439;-75
2022/01/23 02:08:24;;;;;;;75.13;30.58;;;;;;;;;;5032350;28;20098;-75
2022/01/23 02:10:55;;;;;;;50.40;23.60;;;;;;;;;;5032357;28;20052;-75
2022/01/23 02:13:27;;;;;;;63.10;27.30;;;;;;;;;;5032168;28;20079;-75
2022/01/23 02:18:42;;;;;;;59.60;26.65;;;;;;;;;;5031948;28;20068;-75
2022/01/23 02:24:12;;;;;;;56.78;27.25;;;;;;;;;;5057148;28;20038;-75
2022/01/23 02:56:38;;;;;;;90.88;33.28;;;;;;;;;;5020696;28;20121;-75
2022/01/23 02:59:21;;;;;;;99.75;33.92;;;;;;;;;;5013099;28;20130;-75
2022/01/23 03:02:02;;;;;;;69.45;29.35;;;;;;;;;;5013062;28;20042;-75
2022/01/23 03:04:29;;;;;;;64.85;28.65;;;;;;;;;;5013002;28;20453;-75
2022/01/23 03:28:36;;;;;;;94.28;33.65;;;;;;;;;;5032229;28;20083;-75
2022/01/23 03:33:29;;;;;;;149.85;42.47;;;;;;;;;;5032620;28;20048;-75
2022/01/23 03:35:55;;;;;;;64.38;29.45;;;;;;;;;;5032507;28;20029;-75
2022/01/23 03:38:21;;;;;;;69.45;29.52;;;;;;;;;;5032156;28;20085;-75
2022/01/23 03:40:47;;;;;;;60.55;29.17;;;;;;;;;;5032214;28;20036;-75
2022/01/23 03:43:15;;;;;;;65.45;29.08;;;;;;;;;;5032132;28;20112;-75
2022/01/23 03:50:40;;;;;;;55.42;27.70;;;;;;;;;;5032334;28;20516;-75
2022/01/23 03:53:06;;;;;;;52.70;26.83;;;;;;;;;;5037816;28;20586;-74
2022/01/23 03:55:34;;;;;;;64.72;28.50;;;;;;;;;;5050149;28;20044;-75
2022/01/23 03:58:00;;;;;;;61.22;28.88;;;;;;;;;;5034472;28;20103;-75
2022/01/23 04:00:26;;;;;;;65.30;30.13;;;;;;;;;;5034579;28;20128;-75
2022/01/23 04:02:52;;;;;;;61.28;29.50;;;;;;;;;;5034111;28;20025;-75
2022/01/23 04:05:18;;;;;;;63.90;29.25;;;;;;;;;;5034043;28;20018;-75
2022/01/23 04:07:45;;;;;;;122.80;38.33;;;;;;;;;;5034108;28;20021;-74
2022/01/23 04:10:14;;;;;;;81.22;32.85;;;;;;;;;;5034176;28;20064;-75
2022/01/23 04:12:52;;;;;;;66.68;29.70;;;;;;;;;;5034207;28;20021;-75
2022/01/23 04:15:38;;;;;;;60.15;29.35;;;;;;;;;;5034075;28;20056;-75
2022/01/23 04:33:51;;;;;;;76.15;31.48;;;;;;;;;;5073717;28;20043;-75
2022/01/23 05:01:25;;;;;;;73.20;32.53;;;;;;;;;;4972246;28;20033;-75
2022/01/23 05:06:47;;;;;;;64.75;29.40;;;;;;;;;;4972103;28;20042;-75
2022/01/23 05:09:14;;;;;;;77.05;32.63;;;;;;;;;;4971697;28;20437;-75
2022/01/23 05:11:48;;;;;;;70.03;31.15;;;;;;;;;;4972032;28;20031;-75
2022/01/23 05:14:14;;;;;;;74.00;32.45;;;;;;;;;;4971864;28;20114;-75
2022/01/23 05:16:40;;;;;;;70.72;31.50;;;;;;;;;;4971889;28;20140;-75
2022/01/23 05:19:07;;;;;;;77.75;32.60;;;;;;;;;;4971801;28;20423;-75
2022/01/23 05:24:11;;;;;;;95.95;33.90;;;;;;;;;;4952688;28;20031;-75
2022/01/23 05:26:43;;;;;;;67.82;32.38;;;;;;;;;;4969261;28;20034;-75
2022/01/23 05:29:10;;;;;;;68.70;32.78;;;;;;;;;;5015849;28;20113;-75
2022/01/23 05:31:36;;;;;;;72.30;32.50;;;;;;;;;;5032664;28;20041;-75
2022/01/23 05:34:02;;;;;;;75.90;32.65;;;;;;;;;;5032556;28;20049;-75
2022/01/23 05:36:28;;;;;;;88.38;34.33;;;;;;;;;;5032344;28;20029;-75
2022/01/23 05:38:54;;;;;;;58.25;27.83;;;;;;;;;;5032343;28;20510;-75
2022/01/23 05:41:20;;;;;;;62.65;29.85;;;;;;;;;;5032537;28;20396;-75
2022/01/23 05:43:46;;;;;;;70.35;30.23;;;;;;;;;;5032506;28;20022;-75
2022/01/23 05:46:12;;;;;;;66.80;30.15;;;;;;;;;;5032442;28;20052;-75
2022/01/23 05:48:38;;;;;;;67.50;28.75;;;;;;;;;;5032598;28;20488;-75
2022/01/23 05:51:10;;;;;;;59.45;28.40;;;;;;;;;;5032460;28;20044;-75
2022/01/23 05:53:36;;;;;;;70.65;30.08;;;;;;;;;;5032355;28;20029;-75
2022/01/23 05:56:03;;;;;;;57.90;26.63;;;;;;;;;;5040396;28;20062;-75
2022/01/23 05:58:28;;;;;;;51.97;26.42;;;;;;;;;;5052392;28;20083;-75
2022/01/23 06:00:55;;;;;;;99.63;33.95;;;;;;;;;;5052420;28;20444;-75
2022/01/23 06:03:21;;;;;;;60.88;28.73;;;;;;;;;;5052420;28;20071;-75
2022/01/23 06:05:47;;;;;;;48.85;25.98;;;;;;;;;;5052259;28;20053;-75
2022/01/23 06:08:13;;;;;;;55.10;27.55;;;;;;;;;;5054262;28;20036;-75
2022/01/23 06:10:57;;;;;;;88.30;31.83;;;;;;;;;;5056022;28;20029;-75
2022/01/23 06:13:24;;;;;;;58.25;25.92;;;;;;;;;;5056220;28;20064;-75
2022/01/23 06:15:50;;;;;;;72.13;29.83;;;;;;;;;;5054749;28;20021;-75
2022/01/23 06:18:16;;;;;;;135.68;38.72;;;;;;;;;;5055949;28;20599;-75
2022/01/23 06:20:42;;;;;;;76.57;31.25;;;;;;;;;;5054631;28;20017;-75
2022/01/23 06:23:08;;;;;;;51.67;26.88;;;;;;;;;;5055673;28;20021;-75
2022/01/23 06:25:37;;;;;;;71.63;30.77;;;;;;;;;;5055786;28;20029;-75
2022/01/23 06:28:07;;;;;;;63.75;29.63;;;;;;;;;;5055831;28;20029;-75
2022/01/23 06:30:33;;;;;;;67.20;30.02;;;;;;;;;;5055765;28;20541;-75
2022/01/23 06:33:00;;;;;;;60.38;29.08;;;;;;;;;;5055582;28;20088;-75
2022/01/23 06:35:26;;;;;;;73.15;31.52;;;;;;;;;;5055596;28;20033;-75
2022/01/23 06:37:52;;;;;;;100.53;35.40;;;;;;;;;;5055390;28;20033;-75
2022/01/23 06:40:18;;;;;;;115.40;37.58;;;;;;;;;;5055701;28;20028;-75
2022/01/23 06:42:44;;;;;;;66.15;29.13;;;;;;;;;;5054742;28;20029;-75
2022/01/23 06:45:11;;;;;;;64.10;28.02;;;;;;;;;;5054568;28;20100;-75
2022/01/23 06:47:37;;;;;;;53.53;26.23;;;;;;;;;;5055272;28;20039;-75
2022/01/23 06:50:03;;;;;;;113.55;36.15;;;;;;;;;;5054961;28;20056;-75
2022/01/23 06:52:30;;;;;;;55.28;26.70;;;;;;;;;;5055012;28;20478;-75
2022/01/23 06:54:56;;;;;;;57.25;27.52;;;;;;;;;;5055216;28;20434;-75
2022/01/23 06:57:22;;;;;;;56.05;27.15;;;;;;;;;;5054119;28;20037;-75
2022/01/23 06:59:48;;;;;;;94.10;33.85;;;;;;;;;;5055135;28;20025;-75
2022/01/23 07:02:14;;;;;;;73.53;30.05;;;;;;;;;;5055511;28;20025;-75
2022/01/23 07:04:40;;;;;;;105.28;34.28;;;;;;;;;;5055299;28;20533;-75
2022/01/23 07:07:06;;;;;;;80.13;31.30;;;;;;;;;;5053876;28;20158;-75
2022/01/23 07:09:33;;;;;;;59.15;27.25;;;;;;;;;;5055064;28;20104;-74
2022/01/23 07:11:59;;;;;;;77.07;29.80;;;;;;;;;;5055011;28;20044;-75
2022/01/23 07:14:25;;;;;;;112.80;36.55;;;;;;;;;;5054998;28;20036;-75
2022/01/23 07:16:51;;;;;;;54.28;26.95;;;;;;;;;;5053494;28;20037;-75
2022/01/23 07:19:17;;;;;;;51.05;26.13;;;;;;;;;;5053742;28;20036;-75
2022/01/23 07:21:43;;;;;;;65.25;27.95;;;;;;;;;;5054744;28;20092;-74
2022/01/23 07:24:09;;;;;;;56.25;27.40;;;;;;;;;;5035804;28;20022;-75
2022/01/23 07:26:36;;;;;;;49.17;24.45;;;;;;;;;;5034772;28;20025;-75
2022/01/23 07:29:04;;;;;;;44.00;22.85;;;;;;;;;;5034589;28;20033;-75
2022/01/23 07:34:00;;;;;;;59.08;25.42;;;;;;;;;;5034889;28;20417;-75
2022/01/23 07:36:26;;;;;;;57.47;25.33;;;;;;;;;;5033120;28;20518;-75
2022/01/23 07:38:53;;;;;;;45.03;23.75;;;;;;;;;;5034221;28;20048;-75
2022/01/23 07:41:19;;;;;;;51.08;24.77;;;;;;;;;;5034549;28;20048;-75
2022/01/23 07:43:45;;;;;;;48.55;23.25;;;;;;;;;;5034539;28;20409;-75
2022/01/23 07:46:11;;;;;;;70.32;29.08;;;;;;;;;;5034557;28;20037;-75
2022/01/23 07:48:37;;;;;;;54.72;23.65;;;;;;;;;;5034294;28;20025;-75
2022/01/23 07:51:03;;;;;;;53.17;25.42;;;;;;;;;;5034326;28;20079;-75
2022/01/23 07:53:29;;;;;;;69.43;28.02;;;;;;;;;;5034204;28;20770;-75
2022/01/23 07:55:55;;;;;;;46.90;23.25;;;;;;;;;;5041116;28;20064;-75
2022/01/23 07:58:21;;;;;;;45.67;23.58;;;;;;;;;;5053866;28;20056;-75
2022/01/23 08:00:47;;;;;;;69.10;27.77;;;;;;;;;;5054052;28;20033;-75
2022/01/23 08:03:13;;;;;;;53.40;24.65;;;;;;;;;;5053658;28;20086;-75
2022/01/23 08:05:40;;;;;;;47.38;24.23;;;;;;;;;;5053586;28;20022;-75
2022/01/23 08:08:06;;;;;;;48.15;23.48;;;;;;;;;;5053338;28;20136;-75
2022/01/23 08:10:33;;;;;;;45.92;23.45;;;;;;;;;;5053438;28;20048;-75
2022/01/23 08:12:59;;;;;;;53.35;25.25;;;;;;;;;;5053539;28;20021;-75
2022/01/23 08:15:25;;;;;;;44.10;22.60;;;;;;;;;;5054181;28;20154;-75
2022/01/23 08:17:51;;;;;;;41.22;22.52;;;;;;;;;;5053810;28;20036;-75
2022/01/23 08:20:17;;;;;;;48.08;23.02;;;;;;;;;;5053618;28;20032;-75
2022/01/23 08:22:43;;;;;;;39.65;21.63;;;;;;;;;;5056710;28;20023;-75
2022/01/23 08:25:09;;;;;;;46.83;22.73;;;;;;;;;;5073927;28;20375;-75
2022/01/23 08:27:36;;;;;;;46.03;21.58;;;;;;;;;;5073688;28;20024;-75
2022/01/23 08:30:02;;;;;;;40.42;20.88;;;;;;;;;;5073174;28;20524;-75
2022/01/23 08:32:28;;;;;;;43.30;21.10;;;;;;;;;;5073487;28;20048;-75
2022/01/23 08:34:54;;;;;;;64.28;25.45;;;;;;;;;;5073389;28;20096;-76
2022/01/23 08:37:20;;;;;;;45.35;22.80;;;;;;;;;;5071980;28;20035;-75
2022/01/23 08:39:46;;;;;;;42.17;22.45;;;;;;;;;;5043608;28;20021;-75
2022/01/23 08:42:15;;;;;;;64.00;27.35;;;;;;;;;;5061428;28;20025;-75
2022/01/23 08:44:42;;;;;;;78.28;29.00;;;;;;;;;;5055485;28;20021;-75
2022/01/23 08:47:08;;;;;;;68.93;26.25;;;;;;;;;;5053217;28;20021;-75
2022/01/23 08:49:39;;;;;;;54.28;25.58;;;;;;;;;;5063725;28;20032;-75
2022/01/23 08:52:06;;;;;;;51.80;24.70;;;;;;;;;;5060911;28;20036;-75
2022/01/23 08:54:32;;;;;;;56.65;25.33;;;;;;;;;;5069036;28;20512;-75
2022/01/23 08:56:58;;;;;;;68.70;27.58;;;;;;;;;;5058997;28;20036;-75
2022/01/23 08:59:25;;;;;;;55.35;25.98;;;;;;;;;;5041765;28;20473;-75
2022/01/23 09:01:51;;;;;;;59.63;26.10;;;;;;;;;;5052974;28;20110;-75
2022/01/23 09:04:17;;;;;;;69.97;26.70;;;;;;;;;;5052987;28;20021;-75
2022/01/23 09:06:44;;;;;;;65.30;26.58;;;;;;;;;;5051396;28;20021;-75
2022/01/23 09:09:16;;;;;;;57.03;25.23;;;;;;;;;;5047028;28;20374;-75
2022/01/23 09:11:54;;;;;;;51.17;25.10;;;;;;;;;;5040846;28;20053;-75
2022/01/23 09:14:20;;;;;;;65.28;27.70;;;;;;;;;;5046610;28;20131;-75
2022/01/23 09:16:48;;;;;;;61.63;26.58;;;;;;;;;;5043648;28;20108;-75
2022/01/23 09:19:17;;;;;;;48.95;25.23;;;;;;;;;;5046326;28;20092;-75
2022/01/23 09:21:43;;;;;;;54.58;27.90;;;;;;;;;;5045972;28;20021;-75
2022/01/23 09:24:10;;;;;;;57.47;27.42;;;;;;;;;;5052712;28;20075;-75
2022/01/23 09:26:37;;;;;;;53.08;26.00;;;;;;;;;;5042803;28;20021;-75
2022/01/23 09:29:12;;;;;;;54.33;26.90;;;;;;;;;;5047205;28;20029;-75
2022/01/23 09:32:12;;;;;;;50.97;25.83;;;;;;;;;;5050520;28;20118;-75
2022/01/23 09:34:32;;;;;;;68.20;29.27;;;;;;;;;;5050294;28;20073;-74
2022/01/23 09:36:59;;;;;;;63.47;28.95;;;;;;;;;;5051734;28;20272;-74
2022/01/23 09:39:26;;;;;;;52.35;26.23;;;;;;;;;;5047842;28;20082;-74
2022/01/23 09:41:57;;;;;;;60.85;28.52;;;;;;;;;;5039879;28;20083;-74
2022/01/23 09:44:25;;;;;;;63.22;29.73;;;;;;;;;;5042068;28;20041;-74
2022/01/23 09:46:51;;;;;;;54.40;28.73;;;;;;;;;;5042053;28;20021;-74
2022/01/23 09:49:18;;;;;;;48.50;25.98;;;;;;;;;;5045328;28;20032;-74
2022/01/23 09:51:46;;;;;;;51.50;26.63;;;;;;;;;;5042758;28;20029;-74
2022/01/23 09:54:13;;;;;;;53.75;26.05;;;;;;;;;;5045909;28;20021;-74
2022/01/23 09:56:41;;;;;;;60.95;27.48;;;;;;;;;;5046056;28;20131;-74
2022/01/23 09:59:10;;;;;;;56.65;27.10;;;;;;;;;;5045082;28;20022;-74
2022/01/23 10:01:37;;;;;;;49.63;26.83;;;;;;;;;;5047232;28;20021;-74
2022/01/23 10:04:03;;;;;;;48.10;25.05;;;;;;;;;;5045481;28;20440;-74
2022/01/23 10:06:29;;;;;;;51.33;29.10;;;;;;;;;;5044445;28;20077;-74
2022/01/23 10:08:56;;;;;;;50.13;26.63;;;;;;;;;;5049381;28;20029;-74
2022/01/23 10:11:22;;;;;;;56.10;27.85;;;;;;;;;;5043057;28;20111;-74
2022/01/23 10:13:50;;;;;;;48.72;26.40;;;;;;;;;;5041349;28;20029;-74
2022/01/23 10:16:16;;;;;;;53.92;26.80;;;;;;;;;;5042962;28;20044;-74
2022/01/23 10:18:42;;;;;;;46.90;25.55;;;;;;;;;;5036558;28;20129;-74
2022/01/23 10:21:08;;;;;;;55.90;29.00;;;;;;;;;;5042037;28;20071;-74
2022/01/23 10:23:35;;;;;;;48.63;25.27;;;;;;;;;;5047988;28;20029;-74
2022/01/23 10:26:03;;;;;;;52.38;26.50;;;;;;;;;;5044209;28;20051;-76
2022/01/23 10:28:30;;;;;;;60.55;31.55;;;;;;;;;;5043212;28;20355;-76
2022/01/23 10:30:58;;;;;;;48.63;27.08;;;;;;;;;;5048179;28;20368;-77
2022/01/23 10:33:24;;;;;;;48.53;26.13;;;;;;;;;;5048140;28;20049;-76
2022/01/23 10:36:05;;;;;;;44.80;23.20;;;;;;;;;;5046755;28;20033;-76
2022/01/23 10:38:41;;;;;;;37.17;23.10;;;;;;;;;;5047001;28;20430;-76
2022/01/23 10:41:30;;;;;;;42.75;23.70;;;;;;;;;;5042380;28;20383;-76
2022/01/23 10:49:47;;;;;;;36.50;21.20;;;;;;;;;;5046431;28;20040;-76
2022/01/23 10:52:32;;;;;;;40.42;22.25;;;;;;;;;;5044016;28;20403;-76
2022/01/23 10:54:58;;;;;;;39.15;23.25;;;;;;;;;;5051809;28;20021;-76
2022/01/23 10:57:33;;;;;;;37.55;21.48;;;;;;;;;;5047598;28;20040;-76
2022/01/23 11:00:02;;;;;;;39.67;21.88;;;;;;;;;;5047861;28;20040;-76
2022/01/23 11:02:28;;;;;;;38.00;20.48;;;;;;;;;;5063044;28;20340;-76
2022/01/23 11:04:56;;;;;;;36.97;22.60;;;;;;;;;;5051284;28;21836;-76
2022/01/23 11:07:23;;;;;;;39.45;22.20;;;;;;;;;;5049923;28;20398;-76
2022/01/23 11:09:55;;;;;;;32.35;18.90;;;;;;;;;;5048537;28;20113;-76
2022/01/23 11:17:21;;;;;;;30.98;18.23;;;;;;;;;;5043873;28;20025;-76
2022/01/23 11:18:02;;;;;;;31.58;17.83;;;;;;;;;;5053450;28;20036;-75
2022/01/23 11:20:48;;;;;;;30.38;17.08;;;;;;;;;;5044028;28;20021;-76
2022/01/23 11:23:22;;;;;;;27.45;16.83;;;;;;;;;;5043480;28;20021;-76
2022/01/23 11:25:48;;;;;;;26.30;15.68;;;;;;;;;;5034843;28;20116;-77
2022/01/23 11:28:14;;;;;;;22.60;14.18;;;;;;;;;;5051463;28;20163;-75
2022/01/23 11:30:41;;;;;;;22.73;13.73;;;;;;;;;;5073019;28;20043;-75
2022/01/23 11:33:09;;;;;;;25.35;15.57;;;;;;;;;;5072230;28;20044;-75
2022/01/23 11:35:35;;;;;;;24.00;15.85;;;;;;;;;;5073102;28;20028;-75
2022/01/23 11:38:02;;;;;;;25.33;14.45;;;;;;;;;;5072584;28;20036;-75
2022/01/23 11:53:56;;;;;;;17.73;12.60;;;;;;;;;;5073386;28;20055;-75
2022/01/23 11:56:25;;;;;;;15.73;10.95;;;;;;;;;;5062677;28;20032;-76
2022/01/23 11:58:53;;;;;;;18.00;10.75;;;;;;;;;;5052042;28;20040;-76
2022/01/23 12:01:20;;;;;;;14.90;10.00;;;;;;;;;;5053881;28;20017;-75
2022/01/23 12:04:04;;;;;;;15.00;10.05;;;;;;;;;;5053813;28;20047;-74
2022/01/23 12:06:30;;;;;;;15.70;9.63;;;;;;;;;;5053191;28;20575;-74
2022/01/23 12:09:11;;;;;;;12.18;8.05;;;;;;;;;;5053709;28;20426;-74
2022/01/23 12:11:41;;;;;;;12.48;8.57;;;;;;;;;;5052439;28;20029;-74
2022/01/23 12:16:59;;;;;;;12.30;7.70;;;;;;;;;;5031163;28;20150;-74
2022/01/23 12:19:40;;;;;;;13.63;9.23;;;;;;;;;;5030631;28;20044;-75
2022/01/23 12:22:25;;;;;;;13.05;8.00;;;;;;;;;;5030502;28;20061;-74
2022/01/23 12:24:53;;;;;;;8.18;5.20;;;;;;;;;;5030408;28;20045;-74
2022/01/23 12:27:24;;;;;;;8.48;5.30;;;;;;;;;;5030544;28;20088;-77
2022/01/23 12:29:50;;;;;;;9.95;7.43;;;;;;;;;;5039615;28;20032;-76
2022/01/23 12:32:17;;;;;;;7.32;4.82;;;;;;;;;;5044951;28;20607;-77
2022/01/23 12:34:47;;;;;;;5.80;4.05;;;;;;;;;;5049876;28;20036;-77
2022/01/23 12:37:13;;;;;;;4.82;3.33;;;;;;;;;;5050395;28;20348;-76
2022/01/23 12:39:40;;;;;;;5.78;3.67;;;;;;;;;;5033310;28;20383;-76
2022/01/23 12:42:06;;;;;;;4.47;3.13;;;;;;;;;;5050058;28;20476;-77
2022/01/23 12:44:33;;;;;;;6.10;3.15;;;;;;;;;;5050001;28;20029;-76
2022/01/23 12:47:04;;;;;;;4.25;2.92;;;;;;;;;;5049933;28;20068;-76
2022/01/23 12:49:33;;;;;;;5.72;3.50;;;;;;;;;;5049864;28;20025;-77
2022/01/23 12:52:09;;;;;;;6.22;3.60;;;;;;;;;;5033148;28;20033;-76
2022/01/23 12:54:47;;;;;;;5.68;3.80;;;;;;;;;;5066195;28;20032;-76
2022/01/23 12:57:15;;;;;;;6.30;4.07;;;;;;;;;;5052977;28;20036;-77
2022/01/23 12:59:43;;;;;;;5.68;3.75;;;;;;;;;;5049507;28;20021;-76
2022/01/23 13:02:13;;;;;;;6.13;4.38;;;;;;;;;;5052392;28;20033;-76
2022/01/23 13:04:41;;;;;;;5.78;4.20;;;;;;;;;;5050801;28;20036;-75
2022/01/23 13:07:13;;;;;;;10.05;5.80;;;;;;;;;;5051776;28;20104;-75
2022/01/23 13:09:48;;;;;;;8.65;6.00;;;;;;;;;;5041309;28;20035;-76
2022/01/23 13:31:15;;;;;;;28.38;14.60;;;;;;;;;;5071968;28;20035;-73
2022/01/23 13:33:41;;;;;;;28.10;14.68;;;;;;;;;;5071507;28;20089;-73
2022/01/23 13:36:09;;;;;;;23.17;12.38;;;;;;;;;;5071743;28;20111;-73
2022/01/23 13:38:36;;;;;;;19.10;9.80;;;;;;;;;;5070972;28;20083;-73
2022/01/23 13:41:13;;;;;;;21.48;11.38;;;;;;;;;;5071686;28;20477;-73
2022/01/23 13:52:02;;;;;;;16.20;8.63;;;;;;;;;;5071662;28;20035;-73
2022/01/23 13:59:54;;;;;;;16.20;9.73;;;;;;;;;;5031745;28;20067;-73
2022/01/23 14:02:20;;;;;;;75.40;33.05;;;;;;;;;;5031637;28;20030;-73
2022/01/23 14:04:50;;;;;;;43.42;19.73;;;;;;;;;;5031516;28;20026;-73
2022/01/23 14:07:18;;;;;;;24.35;11.70;;;;;;;;;;5030184;28;20063;-73
2022/01/23 14:09:44;;;;;;;20.90;11.15;;;;;;;;;;5031340;28;20100;-73
2022/01/23 14:12:11;;;;;;;16.23;9.77;;;;;;;;;;5031474;28;20037;-73
2022/01/23 14:14:48;;;;;;;17.13;9.38;;;;;;;;;;5031250;28;20060;-73
2022/01/23 14:17:15;;;;;;;17.60;10.30;;;;;;;;;;5031405;28;20033;-73
2022/01/23 14:19:41;;;;;;;17.67;10.43;;;;;;;;;;5031292;28;20080;-73
2022/01/23 14:22:08;;;;;;;17.08;10.80;;;;;;;;;;5031333;28;20060;-73
2022/01/23 14:24:35;;;;;;;17.77;10.98;;;;;;;;;;5031342;28;20025;-73
2022/01/23 14:27:11;;;;;;;17.40;9.88;;;;;;;;;;5029967;28;20160;-73
2022/01/23 14:29:51;;;;;;;19.60;11.70;;;;;;;;;;5045713;28;20021;-73
2022/01/23 14:32:24;;;;;;;18.05;10.52;;;;;;;;;;5074853;28;20479;-73
2022/01/23 14:34:50;;;;;;;22.13;11.73;;;;;;;;;;5073532;28;20477;-73
2022/01/23 14:37:26;;;;;;;22.50;12.88;;;;;;;;;;5073322;28;20028;-77
2022/01/23 14:40:06;;;;;;;21.73;12.45;;;;;;;;;;5074968;28;20035;-75
2022/01/23 14:42:32;;;;;;;19.42;10.98;;;;;;;;;;5072084;28;20052;-76
2022/01/23 14:44:58;;;;;;;26.15;15.70;;;;;;;;;;5054360;28;20033;-76
2022/01/23 14:47:24;;;;;;;20.25;11.90;;;;;;;;;;5045336;28;20036;-76
2022/01/23 14:49:58;;;;;;;20.40;12.63;;;;;;;;;;5045475;28;20025;-76
2022/01/23 14:52:26;;;;;;;18.90;10.98;;;;;;;;;;5054325;28;20059;-76
2022/01/23 14:54:53;;;;;;;16.00;10.05;;;;;;;;;;5044022;28;20029;-75
2022/01/23 14:57:20;;;;;;;18.08;10.73;;;;;;;;;;5053091;28;20383;-76
2022/01/23 14:59:46;;;;;;;18.27;10.20;;;;;;;;;;5054486;28;20028;-76
2022/01/23 15:02:13;;;;;;;19.92;11.18;;;;;;;;;;5054772;28;20059;-76
2022/01/23 15:04:40;;;;;;;21.35;10.55;;;;;;;;;;5047451;28;20391;-76
2022/01/23 15:07:13;;;;;;;17.73;10.15;;;;;;;;;;5051179;28;20099;-76
2022/01/23 15:09:39;;;;;;;16.92;10.18;;;;;;;;;;5047019;28;20815;-76
2022/01/23 15:12:05;;;;;;;16.90;10.07;;;;;;;;;;5046057;28;20188;-76
2022/01/23 15:14:32;;;;;;;17.70;11.13;;;;;;;;;;5053594;28;20116;-76
2022/01/23 15:16:59;;;;;;;19.15;9.90;;;;;;;;;;5051385;28;20021;-76
2022/01/23 15:19:25;;;;;;;18.08;10.02;;;;;;;;;;5053551;28;20033;-76
2022/01/23 15:21:51;;;;;;;21.42;11.10;;;;;;;;;;5054011;28;20070;-76
2022/01/23 15:24:17;;;;;;;18.00;11.02;;;;;;;;;;5053635;28;20071;-76
2022/01/23 15:26:43;;;;;;;21.40;12.10;;;;;;;;;;5048502;28;20025;-76
2022/01/23 15:29:09;;;;;;;20.75;11.65;;;;;;;;;;5054672;28;20032;-75
2022/01/23 15:31:38;;;;;;;21.00;10.52;;;;;;;;;;5056254;28;20028;-76
2022/01/23 15:34:04;;;;;;;18.70;10.18;;;;;;;;;;5042337;28;20095;-76
2022/01/23 15:36:30;;;;;;;20.10;10.43;;;;;;;;;;5047067;28;20506;-75
2022/01/23 15:38:57;;;;;;;17.55;10.00;;;;;;;;;;5042885;28;20135;-75
2022/01/23 15:41:23;;;;;;;20.98;11.43;;;;;;;;;;5041903;28;20025;-75
2022/01/23 15:43:49;;;;;;;23.45;11.27;;;;;;;;;;5044049;28;20082;-76
2022/01/23 15:46:15;;;;;;;22.88;11.60;;;;;;;;;;5042925;28;20072;-75
2022/01/23 15:48:42;;;;;;;23.08;13.27;;;;;;;;;;5043104;28;20029;-75
2022/01/23 15:51:09;;;;;;;22.85;12.85;;;;;;;;;;5043123;28;20440;-75
2022/01/23 15:53:36;;;;;;;25.73;12.18;;;;;;;;;;5045148;28;20095;-75
2022/01/23 15:56:02;;;;;;;21.88;11.52;;;;;;;;;;5052606;28;20025;-75
2022/01/23 15:58:28;;;;;;;19.50;10.98;;;;;;;;;;5052974;28;20033;-75
2022/01/23 16:00:55;;;;;;;17.88;9.30;;;;;;;;;;5053274;28;20021;-76
2022/01/23 16:03:24;;;;;;;17.05;9.95;;;;;;;;;;5053216;28;20033;-76
2022/01/23 16:05:50;;;;;;;15.18;8.88;;;;;;;;;;5046373;28;20017;-76
2022/01/23 16:08:17;;;;;;;14.80;8.90;;;;;;;;;;5042373;28;20013;-74
2022/01/23 16:10:43;;;;;;;17.60;9.23;;;;;;;;;;5052874;28;20020;-74
2022/01/23 16:13:09;;;;;;;16.33;9.05;;;;;;;;;;5052574;28;20593;-74
2022/01/23 16:15:35;;;;;;;18.55;9.20;;;;;;;;;;5052765;28;20024;-74
2022/01/23 16:18:02;;;;;;;17.45;9.18;;;;;;;;;;5052609;28;20104;-74
2022/01/23 16:20:28;;;;;;;18.50;9.77;;;;;;;;;;5052628;28;20035;-74
2022/01/23 16:22:54;;;;;;;20.85;10.25;;;;;;;;;;5050371;28;20480;-74
2022/01/23 16:25:22;;;;;;;17.80;9.32;;;;;;;;;;5052767;28;20195;-74
2022/01/23 16:27:48;;;;;;;22.67;10.68;;;;;;;;;;5051051;28;20048;-74
2022/01/23 16:30:15;;;;;;;16.60;9.55;;;;;;;;;;5052566;28;20091;-74
2022/01/23 16:32:42;;;;;;;17.88;10.18;;;;;;;;;;5052290;28;20109;-74
2022/01/23 16:35:09;;;;;;;24.30;10.90;;;;;;;;;;5062480;28;20033;-73
2022/01/23 16:37:35;;;;;;;22.17;11.60;;;;;;;;;;5072690;28;20033;-75
2022/01/23 16:40:01;;;;;;;22.15;12.38;;;;;;;;;;5072586;28;20043;-75
2022/01/23 16:42:27;;;;;;;20.65;11.68;;;;;;;;;;5072665;28;20036;-75
2022/01/23 16:44:54;;;;;;;24.08;11.40;;;;;;;;;;5072501;28;20047;-75
2022/01/23 16:47:20;;;;;;;23.70;12.23;;;;;;;;;;5065136;28;20017;-74
2022/01/23 16:49:46;;;;;;;25.42;13.45;;;;;;;;;;5052715;28;20036;-75
2022/01/23 16:52:12;;;;;;;26.30;12.48;;;;;;;;;;5052675;28;20017;-75
2022/01/23 16:54:39;;;;;;;25.38;12.27;;;;;;;;;;5052508;28;20056;-74
2022/01/23 16:57:05;;;;;;;23.25;12.38;;;;;;;;;;5035970;28;20013;-75
2022/01/23 16:59:31;;;;;;;23.13;12.50;;;;;;;;;;5032673;28;20025;-75
2022/01/23 17:01:57;;;;;;;23.10;12.38;;;;;;;;;;5032792;28;20528;-75
2022/01/23 17:04:24;;;;;;;25.73;13.45;;;;;;;;;;5048102;28;20037;-75
2022/01/23 17:06:50;;;;;;;26.27;13.85;;;;;;;;;;5032602;28;20068;-75
2022/01/23 17:09:16;;;;;;;28.08;14.63;;;;;;;;;;5032562;28;20033;-75
2022/01/23 17:11:43;;;;;;;27.15;14.85;;;;;;;;;;5032634;28;20036;-75
2022/01/23 17:14:09;;;;;;;33.00;16.67;;;;;;;;;;5032211;28;20028;-76
2022/01/23 17:16:35;;;;;;;31.30;16.17;;;;;;;;;;5032322;28;20102;-76
2022/01/23 17:19:01;;;;;;;30.67;16.48;;;;;;;;;;5031987;28;20446;-74
2022/01/23 17:21:27;;;;;;;32.45;17.45;;;;;;;;;;5046524;28;20021;-74
2022/01/23 17:23:53;;;;;;;29.00;16.25;;;;;;;;;;5037903;28;20104;-74
2022/01/23 17:26:20;;;;;;;33.92;17.55;;;;;;;;;;5040949;28;20040;-74
2022/01/23 17:28:47;;;;;;;29.10;15.35;;;;;;;;;;5045721;28;20028;-74
2022/01/23 17:31:13;;;;;;;32.53;17.13;;;;;;;;;;5042356;28;20021;-74
2022/01/23 17:33:39;;;;;;;29.05;15.20;;;;;;;;;;5043280;28;20047;-74
2022/01/23 17:36:05;;;;;;;33.17;16.15;;;;;;;;;;5046909;28;20138;-74
2022/01/23 17:38:32;;;;;;;26.40;15.52;;;;;;;;;;5043675;28;20064;-74
2022/01/23 17:40:58;;;;;;;28.63;16.13;;;;;;;;;;5045391;28;20086;-74
2022/01/23 17:43:25;;;;;;;27.60;14.68;;;;;;;;;;5039983;28;20473;-74
2022/01/23 17:45:53;;;;;;;27.00;15.70;;;;;;;;;;5044298;28;20029;-74
2022/01/23 17:51:00;;;;;;;32.65;15.65;;;;;;;;;;5046182;28;20072;-75
2022/01/23 17:53:26;;;;;;;32.40;16.48;;;;;;;;;;5054894;28;20025;-75
2022/01/23 17:55:52;;;;;;;31.48;17.17;;;;;;;;;;5048166;28;20033;-74